首页
METAR-TAF:

METAR-TAF

机场 :

塔布 盧爾德, 法国

纬度: 43-11N, 经度: 000-00W, 海拔: 379米

当前天气观测

该预报发布于25分钟前的20:00 UTC
风速4节,风向,在东南西南之间变化
温度 9°C
湿度 81%
气压 1019 hPa
能见度10公里或以上
阴天层高于7200英尺

METAR: LFBT 292000Z AUTO 17004KT 130V220 9999 OVC072 09/06 Q1019 NOSIG

时间: 21:25 (20:25 UTC)

预报

该预报发布于3小时和25分钟前的17:00 UTC
预报有效从29日的 18点(UTC)到 30日的 18点(UTC)
风速2节,风向多变
能见度10公里或以上
多云层高于6000英尺
成为
从 29日的 18点(UTC)到 29日的 20点(UTC)
风速5节,风向
几率 40% :
短暂存在
从 30日的 00点(UTC)到 30日的 07点(UTC)
多云层高于3500英尺
小雨
成为
从 30日的 10点(UTC)到 30日的 12点(UTC)
风速2节,风向多变
几率 30% :
短暂存在
从 30日的 16点(UTC)到 30日的 18点(UTC)
少量云层高于2500英尺, 塔状积云.
小雨

TAF: LFBT 291700Z 2918/3018 VRB02KT 9999 BKN060 BECMG 2918/2920 19005KT PROB40 TEMPO 3000/3007 -RA BKN035 BECMG 3010/3012 VRB02KT PROB30 TEMPO 3016/3018 -RA FEW025TCU

超过4000个机场的气象观测和天气预报(METAR&TAF报告)。

可查询的气象台以黄色和红色小点在地图上表示。

将鼠标移到小点上方,可查看气象台名称。

然后点击查看天气观测和预报。

如需切换地图:点击带黑十字的绿色按钮放大地图;点击带横线的绿色按钮缩小地图;或者点击绿色箭头查看邻近地区的地图。


METAR-TAF: